Weather History for Houlton, ME

Change the Weather History Date:

Saturday, October 20, 2012

  Actual Average Record
Temperature  
Mean Temperature 59 °F 42 °F  
Max Temperature 64 °F 52 °F 75 °F (1963)
Min Temperature 53 °F 32 °F 11 °F (1972)
Degree Days  
Heating Degree Days 6 23  
Month to date heating degree days 359 395  
Since 1 July heating degree days 685 863  
Cooling Degree Days 0 0  
Month to date cooling degree days 0 0  
Year to date cooling degree days 277 191  
Growing Degree Days 8 (Base 50)    
Moisture  
Dew Point 59 °F    
Average Humidity 90    
Maximum Humidity 93    
Minimum Humidity 86    
Precipitation  
Precipitation 1.56 in 0.13 in 1.79 in (1966)
Month to date precipitation 5.09 2.34  
Year to date precipitation 38.88 31.36  
Sea Level Pressure  
Sea Level Pressure 29.72 in    
Wind  
Wind Speed 8 mph (SE)    
Max Wind Speed 15 mph    
Max Gust Speed 23 mph    
Visibility 5 miles    
Events Rain , Thunderstorm    
T = Trace of Precipitation, MM = Missing Value Source: NWS Daily Summary

Daily Weather History Graph

Daily Weather History Graph

Search for Another Location

Airport:

Trip Planner

Search our weather history database for the weather conditions in past years. The results will help you decide how hot, cold, wet, or windy it might be!

Date:

Astronomy

Oct. 20, 2012 Rise Set
Actual Time 6:55 AM EDT 5:35 PM EDT
Civil Twilight 6:25 AM EDT 6:05 PM EDT
Nautical Twilight 5:50 AM EDT 6:40 PM EDT
Astronomical Twilight 5:15 AM EDT 7:15 PM EDT
Moon 12:38 PM EDT (10/20) 10:08 PM EDT (10/20)
Length of Visible Light 11h 40m
Length of Day
10h 39m
Waxing Crescent, 34% of the Moon is Illuminated
Oct 20
Waxing Crescent
Oct 21
First Quarter
Oct 29
Full
Nov 6
Last Quarter
Nov 13
New

Hourly Weather History & Observations

Time (EDT) Temp. Dew Point Humidity Pressure Visibility Wind Dir Wind Speed Gust Speed Precip Events Conditions
12:53 AM 53.1 °F 50.0 °F 89% 29.91 in 7.0 mi ESE 9.2 mph - 0.03 in Rain Light Rain
1:53 AM 55.0 °F 52.0 °F 89% 29.89 in 3.0 mi ESE 8.1 mph 16.1 mph 0.10 in Rain Rain
2:29 AM 57.2 °F 53.6 °F 88% 29.88 in 9.0 mi SSE 9.2 mph - 0.03 in   Overcast
2:38 AM 57.2 °F 53.6 °F 88% 29.88 in 9.0 mi SE 11.5 mph 23.0 mph 0.03 in   Overcast
2:53 AM 57.9 °F 55.0 °F 90% 29.88 in 8.0 mi SE 10.4 mph 17.3 mph 0.03 in   Overcast
3:53 AM 57.9 °F 55.0 °F 90% 29.87 in 10.0 mi SE 8.1 mph 16.1 mph N/A   Overcast
4:49 AM 57.2 °F 55.4 °F 94% 29.84 in 7.0 mi ESE 10.4 mph 18.4 mph 0.00 in   Overcast
4:53 AM 57.9 °F 55.0 °F 90% 29.85 in 9.0 mi SE 9.2 mph 18.4 mph 0.00 in Rain Light Rain
5:09 AM 57.2 °F 55.4 °F 94% 29.85 in 6.0 mi ESE 12.7 mph - 0.01 in Rain Light Rain
5:18 AM 57.2 °F 55.4 °F 94% 29.85 in 2.5 mi ESE 12.7 mph 18.4 mph 0.05 in Rain Heavy Rain
5:33 AM 57.2 °F 55.4 °F 94% 29.85 in 4.0 mi ESE 6.9 mph 17.3 mph 0.12 in Rain Light Rain
5:49 AM 57.2 °F 55.4 °F 94% 29.84 in 9.0 mi ESE 9.2 mph - 0.13 in Rain Light Rain
5:53 AM 57.9 °F 55.0 °F 90% 29.84 in 10.0 mi ESE 9.2 mph - 0.13 in Rain Light Rain
6:13 AM 59.0 °F 55.4 °F 88% 29.83 in 10.0 mi ESE 10.4 mph - 0.00 in Rain Light Rain
6:53 AM 60.1 °F 57.0 °F 90% 29.83 in 3.0 mi ESE 8.1 mph - 0.12 in Rain Heavy Rain
7:53 AM 60.1 °F 57.0 °F 90% 29.82 in 9.0 mi ESE 5.8 mph - 0.04 in Rain Light Rain
8:05 AM 60.8 °F 57.2 °F 88% 29.81 in 10.0 mi Variable 3.5 mph - 0.01 in Rain Light Rain
8:53 AM 62.1 °F 59.0 °F 90% 29.82 in 10.0 mi SSE 6.9 mph - 0.02 in Rain Light Rain
9:21 AM 62.6 °F 60.8 °F 94% 29.81 in 1.8 mi SSE 8.1 mph - 0.04 in Rain Rain
9:45 AM 62.6 °F 60.8 °F 94% 29.80 in 3.0 mi SE 5.8 mph - 0.07 in Rain Light Rain
9:53 AM 63.0 °F 60.1 °F 90% 29.81 in 8.0 mi SE 5.8 mph - 0.07 in Rain Light Rain
10:03 AM 62.6 °F 60.8 °F 94% 29.80 in 1.8 mi SE 5.8 mph - 0.03 in Rain Rain
10:10 AM 62.6 °F 60.8 °F 94% 29.79 in 3.0 mi SE 6.9 mph - 0.04 in Rain Light Rain
10:16 AM 62.6 °F 60.8 °F 94% 29.79 in 7.0 mi Variable 6.9 mph - 0.04 in Rain Light Rain
10:24 AM 62.6 °F 60.8 °F 94% 29.79 in 9.0 mi SSE 4.6 mph - 0.04 in Rain Light Rain
10:32 AM 62.6 °F 60.8 °F 94% 29.79 in 10.0 mi Variable 6.9 mph - 0.04 in Rain Light Rain
10:53 AM 63.0 °F 60.1 °F 90% 29.77 in 4.0 mi ESE 6.9 mph - 0.06 in Rain Light Rain
11:27 AM 62.6 °F 60.8 °F 94% 29.75 in 10.0 mi ESE 8.1 mph - 0.00 in   Overcast
11:53 AM 63.0 °F 60.1 °F 90% 29.74 in 4.0 mi SE 9.2 mph 17.3 mph 0.03 in Rain Rain
12:14 PM 62.6 °F 60.8 °F 94% 29.72 in 1.8 mi SE 9.2 mph - 0.06 in Rain Rain
12:18 PM 62.6 °F 60.8 °F 94% 29.72 in 2.0 mi SE 9.2 mph - 0.07 in Rain Rain
12:24 PM 62.6 °F 60.8 °F 94% 29.71 in 3.0 mi ESE 6.9 mph 17.3 mph 0.07 in Rain Light Rain
12:36 PM 62.6 °F 60.8 °F 94% 29.70 in 10.0 mi ESE 10.4 mph - N/A   Overcast
12:53 PM 63.0 °F 60.1 °F 90% 29.70 in 2.5 mi ESE 9.2 mph - 0.08 in Rain Light Rain
12:59 PM 62.6 °F 60.8 °F 94% 29.69 in 1.8 mi ESE 8.1 mph - 0.05 in Rain Rain
1:03 PM 62.6 °F 60.8 °F 94% 29.69 in 1.2 mi SE 6.9 mph - 0.06 in Rain Heavy Rain
1:14 PM 62.6 °F 60.8 °F 94% 29.68 in 0.8 mi ESE 9.2 mph - 0.16 in Rain Heavy Rain
1:20 PM 62.6 °F 60.8 °F 94% 29.66 in 1.0 mi ESE 10.4 mph - 0.21 in Rain Heavy Rain
1:26 PM 62.6 °F 60.8 °F 94% 29.67 in 1.5 mi SSE 8.1 mph - 0.23 in Rain Light Rain
1:31 PM 62.6 °F 60.8 °F 94% 29.67 in 4.0 mi SE 9.2 mph - 0.23 in Rain Light Rain
1:39 PM 62.6 °F 60.8 °F 94% 29.67 in 2.5 mi ESE 8.1 mph - 0.25 in Rain Rain
1:46 PM 62.6 °F 60.8 °F 94% 29.67 in 1.5 mi SE 9.2 mph - 0.28 in Rain Rain
1:53 PM 63.0 °F 60.1 °F 90% 29.67 in 1.5 mi SE 9.2 mph - 0.30 in Rain Rain
2:02 PM 62.6 °F 60.8 °F 94% 29.67 in 2.5 mi SE 9.2 mph - 0.01 in Rain Light Rain
2:10 PM 62.6 °F 60.8 °F 94% 29.67 in 1.2 mi ESE 4.6 mph - 0.03 in Rain Rain
2:27 PM 62.6 °F 60.8 °F 94% 29.65 in 2.0 mi SE 9.2 mph - 0.16 in Rain Rain
2:35 PM 62.6 °F 60.8 °F 94% 29.65 in 5.0 mi SE 6.9 mph - 0.17 in Rain Light Rain
2:44 PM 62.6 °F 60.8 °F 94% 29.65 in 10.0 mi ESE 10.4 mph 16.1 mph 0.17 in Rain Light Rain
2:53 PM 62.6 °F 60.8 °F 94% 29.65 in 3.0 mi SE 9.2 mph - N/A Rain Light Rain
2:56 PM 62.6 °F 60.8 °F 94% 29.65 in 1.8 mi SE 6.9 mph - 0.02 in Rain Rain
3:05 PM 62.6 °F 60.8 °F 94% 29.65 in 1.2 mi SE 10.4 mph 18.4 mph 0.08 in Rain Heavy Rain
3:14 PM 62.6 °F 60.8 °F 94% 29.65 in 2.0 mi SSE 6.9 mph 18.4 mph 0.11 in Rain Light Rain
3:22 PM 62.6 °F 60.8 °F 94% 29.65 in 8.0 mi SSE 6.9 mph - 0.11 in Rain Light Rain
3:24 PM 62.6 °F 60.8 °F 94% 29.65 in 7.0 mi SSE 8.1 mph - 0.11 in Rain Light Rain
3:36 PM 62.6 °F 60.8 °F 94% 29.64 in 2.5 mi SSE 8.1 mph - 0.14 in Rain Light Rain
3:44 PM 62.6 °F 60.8 °F 94% 29.65 in 3.0 mi SSE 5.8 mph 16.1 mph 0.14 in Rain Light Rain
3:49 PM 62.6 °F 60.8 °F 94% 29.65 in 2.5 mi South 6.9 mph - 0.18 in Rain Light Rain
3:51 PM 62.6 °F 60.8 °F 94% 29.65 in 1.2 mi SSE 8.1 mph - 0.22 in Rain Rain
3:53 PM 63.0 °F 61.0 °F 93% 29.65 in 0.8 mi SSE 8.1 mph - 0.25 in Rain Heavy Rain
4:00 PM 62.6 °F 60.8 °F 94% 29.64 in 1.0 mi SSE 6.9 mph - 0.02 in Rain Light Rain
4:05 PM 62.6 °F 60.8 °F 94% 29.64 in 2.0 mi SSE 12.7 mph 18.4 mph 0.02 in Rain Light Rain
4:23 PM 64.4 °F 60.8 °F 88% 29.64 in 3.0 mi SSE 8.1 mph - 0.03 in Rain Light Rain
4:53 PM 64.0 °F 61.0 °F 90% 29.65 in 10.0 mi South 10.4 mph 23.0 mph 0.03 in   Overcast
5:17 PM 64.4 °F 60.8 °F 88% 29.64 in 10.0 mi SSE 6.9 mph 16.1 mph N/A   Overcast
5:53 PM 63.0 °F 60.1 °F 90% 29.62 in 10.0 mi SSE 11.5 mph 16.1 mph 0.00 in Rain Light Rain
6:21 PM 62.6 °F 60.8 °F 94% 29.63 in 5.0 mi Variable 5.8 mph - 0.06 in Thunderstorm Overcast
6:36 PM 62.6 °F 60.8 °F 94% 29.63 in 4.0 mi Variable 6.9 mph - 0.06 in   Overcast
6:53 PM 63.0 °F 61.0 °F 93% 29.62 in 5.0 mi SSE 8.1 mph - 0.06 in Rain Light Rain
7:53 PM 63.0 °F 61.0 °F 93% 29.61 in 9.0 mi South 6.9 mph - 0.04 in Rain Light Rain
8:53 PM 63.0 °F 60.1 °F 90% 29.59 in 8.0 mi SSE 6.9 mph - 0.01 in   Overcast
9:53 PM 62.1 °F 60.1 °F 93% 29.60 in 3.0 mi South 5.8 mph - N/A   Overcast
10:07 PM 62.6 °F 60.8 °F 94% 29.60 in 2.5 mi South 6.9 mph - N/A   Overcast
10:53 PM 61.0 °F 60.1 °F 97% 29.60 in 3.0 mi SSE 8.1 mph - 0.00 in Rain Light Rain
11:53 PM 61.0 °F 59.0 °F 93% 29.60 in 10.0 mi South 5.8 mph - 0.00 in   Overcast